27 mei 2022

Tijd Code Weer Temp. Zicht Plafond Wind METAR/SPECI
8:00 p.m.
V
72 °F 6¼ mi+ - 320° 320° 8 kt METAR LFLW 271800Z AUTO 32008KT 270V360 CAVOK 22/11 Q1022
7:30 p.m.
V
72 °F 6¼ mi+ - 340° 340° 10 kt METAR LFLW 271730Z AUTO 34010KT CAVOK 22/11 Q1022
7:00 p.m.
V
73 °F 6¼ mi+ - 330° 330° 8 kt METAR LFLW 271700Z AUTO 33008KT 280V360 CAVOK 23/12 Q1022 NOSIG
6:30 p.m.
V
75 °F 6¼ mi+ - 310° 310° 9 kt METAR LFLW 271630Z AUTO 31009KT 280V350 CAVOK 24/12 Q1022 NOSIG
6:00 p.m.
V
75 °F 6¼ mi+ - 330° 330° 9 kt METAR LFLW 271600Z AUTO 33009KT 290V040 CAVOK 24/13 Q1022 NOSIG
5:30 p.m.
V
75 °F 6¼ mi+ - 320° 320° 8 kt METAR LFLW 271530Z AUTO 32008KT 280V010 CAVOK 24/13 Q1022 NOSIG
5:00 p.m.
V
75 °F 6¼ mi+ - 330° 330° 8 kt METAR LFLW 271500Z AUTO 33008KT 260V360 CAVOK 24/13 Q1022 NOSIG
4:30 p.m.
V
75 °F 6¼ mi+ - 310° 310° 9 kt METAR LFLW 271430Z AUTO 31009KT 260V350 CAVOK 24/12 Q1023 NOSIG
Oudere gegevens

Installeer onze app

Gemakkelijke toegang tot al het luchtvaartweer op je mobiele telefoon en tablet.
Met veel functies die niet op de website beschikbaar zijn, zoals offline ondersteuning en een persoonlijke lijst van vliegvelden.

Met cookies volgen wij en derde partijen jouw internetgedrag binnen onze site. Als je verdergaat gaan we ervan uit dat je dit goedvindt. Meer info